sensor_id;sensor_type;location;lat;lon;timestamp;P1;durP1;ratioP1;P2;durP2;ratioP2
48853;SDS011;34673;52.808;17.856;2024-01-30T00:01:18;29.35;;;14.05;;
48853;SDS011;34673;52.808;17.856;2024-01-30T00:03:45;30.08;;;13.05;;
48853;SDS011;34673;52.808;17.856;2024-01-30T00:06:12;32.33;;;13.18;;
48853;SDS011;34673;52.808;17.856;2024-01-30T00:08:40;28.35;;;13.15;;
48853;SDS011;34673;52.808;17.856;2024-01-30T00:11:07;28.90;;;13.32;;
48853;SDS011;34673;52.808;17.856;2024-01-30T00:13:34;26.48;;;12.70;;
48853;SDS011;34673;52.808;17.856;2024-01-30T00:16:01;31.33;;;13.55;;
48853;SDS011;34673;52.808;17.856;2024-01-30T00:18:28;29.17;;;13.27;;
48853;SDS011;34673;52.808;17.856;2024-01-30T00:20:56;28.23;;;12.63;;
48853;SDS011;34673;52.808;17.856;2024-01-30T00:23:23;31.63;;;13.63;;
48853;SDS011;34673;52.808;17.856;2024-01-30T00:25:51;28.15;;;12.65;;
48853;SDS011;34673;52.808;17.856;2024-01-30T00:28:18;30.85;;;13.48;;
48853;SDS011;34673;52.808;17.856;2024-01-30T00:30:45;28.05;;;12.93;;
48853;SDS011;34673;52.808;17.856;2024-01-30T00:33:13;28.20;;;13.73;;
48853;SDS011;34673;52.808;17.856;2024-01-30T00:35:40;30.92;;;14.18;;
48853;SDS011;34673;52.808;17.856;2024-01-30T00:38:07;26.42;;;12.32;;
48853;SDS011;34673;52.808;17.856;2024-01-30T00:40:34;28.38;;;13.40;;
48853;SDS011;34673;52.808;17.856;2024-01-30T00:43:01;28.77;;;13.70;;
48853;SDS011;34673;52.808;17.856;2024-01-30T00:45:29;25.17;;;12.77;;
48853;SDS011;34673;52.808;17.856;2024-01-30T00:47:56;29.42;;;12.80;;
48853;SDS011;34673;52.808;17.856;2024-01-30T00:50:23;28.80;;;12.70;;
48853;SDS011;34673;52.808;17.856;2024-01-30T00:52:51;29.52;;;13.77;;
48853;SDS011;34673;52.808;17.856;2024-01-30T00:55:18;26.80;;;13.63;;
48853;SDS011;34673;52.808;17.856;2024-01-30T00:57:45;30.08;;;14.25;;
48853;SDS011;34673;52.808;17.856;2024-01-30T01:00:13;28.75;;;12.90;;
48853;SDS011;34673;52.808;17.856;2024-01-30T01:02:44;31.10;;;13.77;;
48853;SDS011;34673;52.808;17.856;2024-01-30T01:05:11;29.83;;;13.48;;
48853;SDS011;34673;52.808;17.856;2024-01-30T01:07:39;30.77;;;14.75;;
48853;SDS011;34673;52.808;17.856;2024-01-30T01:10:07;26.52;;;12.82;;
48853;SDS011;34673;52.808;17.856;2024-01-30T01:12:35;28.60;;;13.07;;
48853;SDS011;34673;52.808;17.856;2024-01-30T01:15:02;27.08;;;13.35;;
48853;SDS011;34673;52.808;17.856;2024-01-30T01:17:29;27.83;;;13.10;;
48853;SDS011;34673;52.808;17.856;2024-01-30T01:19:57;29.42;;;13.35;;
48853;SDS011;34673;52.808;17.856;2024-01-30T01:22:24;35.90;;;14.30;;
48853;SDS011;34673;52.808;17.856;2024-01-30T01:24:51;27.88;;;13.32;;
48853;SDS011;34673;52.808;17.856;2024-01-30T01:27:18;25.90;;;13.00;;
48853;SDS011;34673;52.808;17.856;2024-01-30T01:29:45;30.38;;;13.60;;
48853;SDS011;34673;52.808;17.856;2024-01-30T01:32:12;27.17;;;13.75;;
48853;SDS011;34673;52.808;17.856;2024-01-30T01:34:39;28.52;;;13.57;;
48853;SDS011;34673;52.808;17.856;2024-01-30T01:37:07;28.05;;;13.25;;
48853;SDS011;34673;52.808;17.856;2024-01-30T01:39:34;24.80;;;12.73;;
48853;SDS011;34673;52.808;17.856;2024-01-30T01:42:01;29.70;;;12.95;;
48853;SDS011;34673;52.808;17.856;2024-01-30T01:44:29;27.60;;;12.80;;
48853;SDS011;34673;52.808;17.856;2024-01-30T01:46:56;30.40;;;13.07;;
48853;SDS011;34673;52.808;17.856;2024-01-30T01:49:24;28.73;;;13.20;;
48853;SDS011;34673;52.808;17.856;2024-01-30T01:51:55;31.83;;;14.15;;
48853;SDS011;34673;52.808;17.856;2024-01-30T01:54:25;26.08;;;12.85;;
48853;SDS011;34673;52.808;17.856;2024-01-30T01:56:55;29.02;;;13.57;;
48853;SDS011;34673;52.808;17.856;2024-01-30T01:59:22;30.70;;;12.75;;
48853;SDS011;34673;52.808;17.856;2024-01-30T02:01:51;25.23;;;12.73;;
48853;SDS011;34673;52.808;17.856;2024-01-30T02:04:20;27.30;;;14.23;;
48853;SDS011;34673;52.808;17.856;2024-01-30T02:06:47;29.65;;;13.15;;
48853;SDS011;34673;52.808;17.856;2024-01-30T02:09:14;30.75;;;12.45;;
48853;SDS011;34673;52.808;17.856;2024-01-30T02:11:42;29.58;;;13.00;;
48853;SDS011;34673;52.808;17.856;2024-01-30T02:14:09;27.63;;;12.75;;
48853;SDS011;34673;52.808;17.856;2024-01-30T02:16:36;30.25;;;14.05;;
48853;SDS011;34673;52.808;17.856;2024-01-30T02:19:03;27.00;;;13.43;;
48853;SDS011;34673;52.808;17.856;2024-01-30T02:21:32;27.58;;;13.38;;
48853;SDS011;34673;52.808;17.856;2024-01-30T02:23:59;31.15;;;13.50;;
48853;SDS011;34673;52.808;17.856;2024-01-30T02:26:26;29.95;;;13.27;;
48853;SDS011;34673;52.808;17.856;2024-01-30T02:28:53;27.00;;;12.60;;
48853;SDS011;34673;52.808;17.856;2024-01-30T02:31:21;34.72;;;13.82;;
48853;SDS011;34673;52.808;17.856;2024-01-30T02:33:48;29.55;;;13.80;;
48853;SDS011;34673;52.808;17.856;2024-01-30T02:36:15;29.10;;;14.18;;
48853;SDS011;34673;52.808;17.856;2024-01-30T02:38:42;27.38;;;12.82;;
48853;SDS011;34673;52.808;17.856;2024-01-30T02:41:09;25.80;;;13.05;;
48853;SDS011;34673;52.808;17.856;2024-01-30T02:43:36;28.17;;;14.05;;
48853;SDS011;34673;52.808;17.856;2024-01-30T02:46:03;28.65;;;13.85;;
48853;SDS011;34673;52.808;17.856;2024-01-30T02:48:30;31.88;;;13.38;;
48853;SDS011;34673;52.808;17.856;2024-01-30T02:50:57;29.77;;;14.05;;
48853;SDS011;34673;52.808;17.856;2024-01-30T02:53:25;30.38;;;14.02;;
48853;SDS011;34673;52.808;17.856;2024-01-30T02:55:52;30.38;;;13.63;;
48853;SDS011;34673;52.808;17.856;2024-01-30T02:58:19;31.33;;;14.02;;
48853;SDS011;34673;52.808;17.856;2024-01-30T03:00:46;30.13;;;14.32;;
48853;SDS011;34673;52.808;17.856;2024-01-30T03:03:13;24.77;;;13.10;;
48853;SDS011;34673;52.808;17.856;2024-01-30T03:05:41;32.63;;;13.48;;
48853;SDS011;34673;52.808;17.856;2024-01-30T03:08:08;33.00;;;13.25;;
48853;SDS011;34673;52.808;17.856;2024-01-30T03:10:35;27.20;;;13.60;;
48853;SDS011;34673;52.808;17.856;2024-01-30T03:13:02;25.92;;;13.48;;
48853;SDS011;34673;52.808;17.856;2024-01-30T03:15:30;30.73;;;13.73;;
48853;SDS011;34673;52.808;17.856;2024-01-30T03:17:57;32.53;;;14.18;;
48853;SDS011;34673;52.808;17.856;2024-01-30T03:20:24;28.80;;;13.38;;
48853;SDS011;34673;52.808;17.856;2024-01-30T03:22:52;28.08;;;13.00;;
48853;SDS011;34673;52.808;17.856;2024-01-30T03:25:20;28.33;;;13.25;;
48853;SDS011;34673;52.808;17.856;2024-01-30T03:27:47;29.88;;;12.93;;
48853;SDS011;34673;52.808;17.856;2024-01-30T03:30:15;28.80;;;13.07;;
48853;SDS011;34673;52.808;17.856;2024-01-30T03:32:42;28.27;;;13.75;;
48853;SDS011;34673;52.808;17.856;2024-01-30T03:35:10;29.60;;;14.18;;
48853;SDS011;34673;52.808;17.856;2024-01-30T03:37:38;31.73;;;14.13;;
48853;SDS011;34673;52.808;17.856;2024-01-30T03:40:05;27.10;;;13.52;;
48853;SDS011;34673;52.808;17.856;2024-01-30T03:42:32;27.35;;;13.25;;
48853;SDS011;34673;52.808;17.856;2024-01-30T03:44:59;28.42;;;13.80;;
48853;SDS011;34673;52.808;17.856;2024-01-30T03:47:27;26.48;;;12.60;;
48853;SDS011;34673;52.808;17.856;2024-01-30T03:49:54;28.55;;;13.52;;
48853;SDS011;34673;52.808;17.856;2024-01-30T03:52:21;26.58;;;12.80;;
48853;SDS011;34673;52.808;17.856;2024-01-30T03:54:48;28.98;;;13.70;;
48853;SDS011;34673;52.808;17.856;2024-01-30T03:57:16;27.55;;;12.43;;
48853;SDS011;34673;52.808;17.856;2024-01-30T03:59:43;29.13;;;13.35;;
48853;SDS011;34673;52.808;17.856;2024-01-30T04:02:10;26.67;;;12.45;;
48853;SDS011;34673;52.808;17.856;2024-01-30T04:07:08;27.02;;;12.57;;
48853;SDS011;34673;52.808;17.856;2024-01-30T04:09:35;26.48;;;12.75;;
48853;SDS011;34673;52.808;17.856;2024-01-30T04:12:02;25.23;;;11.80;;
48853;SDS011;34673;52.808;17.856;2024-01-30T04:14:30;26.63;;;13.27;;
48853;SDS011;34673;52.808;17.856;2024-01-30T04:16:57;28.00;;;13.07;;
48853;SDS011;34673;52.808;17.856;2024-01-30T04:19:24;27.27;;;12.93;;
48853;SDS011;34673;52.808;17.856;2024-01-30T04:21:52;27.88;;;13.13;;
48853;SDS011;34673;52.808;17.856;2024-01-30T04:24:19;29.88;;;12.15;;
48853;SDS011;34673;52.808;17.856;2024-01-30T04:26:46;30.15;;;14.02;;
48853;SDS011;34673;52.808;17.856;2024-01-30T04:29:13;26.13;;;12.43;;
48853;SDS011;34673;52.808;17.856;2024-01-30T04:31:40;25.55;;;12.43;;
48853;SDS011;34673;52.808;17.856;2024-01-30T04:34:07;26.13;;;12.60;;
48853;SDS011;34673;52.808;17.856;2024-01-30T04:36:35;25.33;;;12.55;;
48853;SDS011;34673;52.808;17.856;2024-01-30T04:39:02;27.38;;;12.90;;
48853;SDS011;34673;52.808;17.856;2024-01-30T04:41:30;29.23;;;12.85;;
48853;SDS011;34673;52.808;17.856;2024-01-30T04:43:59;30.80;;;13.88;;
48853;SDS011;34673;52.808;17.856;2024-01-30T04:46:26;30.35;;;12.52;;
48853;SDS011;34673;52.808;17.856;2024-01-30T04:48:53;27.10;;;13.13;;
48853;SDS011;34673;52.808;17.856;2024-01-30T04:51:20;30.73;;;12.15;;
48853;SDS011;34673;52.808;17.856;2024-01-30T04:53:47;25.42;;;12.20;;
48853;SDS011;34673;52.808;17.856;2024-01-30T04:56:14;26.80;;;12.68;;
48853;SDS011;34673;52.808;17.856;2024-01-30T04:58:42;28.02;;;12.50;;
48853;SDS011;34673;52.808;17.856;2024-01-30T05:01:09;23.27;;;12.05;;
48853;SDS011;34673;52.808;17.856;2024-01-30T05:03:36;27.30;;;12.85;;
48853;SDS011;34673;52.808;17.856;2024-01-30T05:06:03;29.80;;;13.23;;
48853;SDS011;34673;52.808;17.856;2024-01-30T05:08:31;24.95;;;11.82;;
48853;SDS011;34673;52.808;17.856;2024-01-30T05:11:02;29.25;;;13.43;;
48853;SDS011;34673;52.808;17.856;2024-01-30T05:13:32;26.05;;;12.88;;
48853;SDS011;34673;52.808;17.856;2024-01-30T05:16:01;24.98;;;11.75;;
48853;SDS011;34673;52.808;17.856;2024-01-30T05:18:30;31.20;;;13.25;;
48853;SDS011;34673;52.808;17.856;2024-01-30T05:20:57;24.55;;;12.45;;
48853;SDS011;34673;52.808;17.856;2024-01-30T05:23:24;27.30;;;12.10;;
48853;SDS011;34673;52.808;17.856;2024-01-30T05:25:51;26.52;;;12.48;;
48853;SDS011;34673;52.808;17.856;2024-01-30T05:28:18;27.42;;;13.63;;
48853;SDS011;34673;52.808;17.856;2024-01-30T05:30:46;27.80;;;12.85;;
48853;SDS011;34673;52.808;17.856;2024-01-30T05:33:13;27.42;;;12.27;;
48853;SDS011;34673;52.808;17.856;2024-01-30T05:35:40;26.85;;;11.95;;
48853;SDS011;34673;52.808;17.856;2024-01-30T05:38:07;27.35;;;12.45;;
48853;SDS011;34673;52.808;17.856;2024-01-30T05:40:35;25.10;;;12.45;;
48853;SDS011;34673;52.808;17.856;2024-01-30T05:43:02;26.95;;;13.23;;
48853;SDS011;34673;52.808;17.856;2024-01-30T05:45:29;22.05;;;11.75;;
48853;SDS011;34673;52.808;17.856;2024-01-30T05:47:56;25.73;;;11.88;;
48853;SDS011;34673;52.808;17.856;2024-01-30T05:50:24;25.58;;;12.48;;
48853;SDS011;34673;52.808;17.856;2024-01-30T05:52:52;25.35;;;12.95;;
48853;SDS011;34673;52.808;17.856;2024-01-30T05:55:19;24.83;;;12.30;;
48853;SDS011;34673;52.808;17.856;2024-01-30T05:57:47;24.33;;;12.27;;
48853;SDS011;34673;52.808;17.856;2024-01-30T06:00:14;25.45;;;12.00;;
48853;SDS011;34673;52.808;17.856;2024-01-30T06:02:42;25.75;;;11.60;;
48853;SDS011;34673;52.808;17.856;2024-01-30T06:05:09;24.17;;;12.02;;
48853;SDS011;34673;52.808;17.856;2024-01-30T06:07:36;21.80;;;11.38;;
48853;SDS011;34673;52.808;17.856;2024-01-30T06:10:03;23.75;;;11.70;;
48853;SDS011;34673;52.808;17.856;2024-01-30T06:12:31;22.58;;;11.80;;
48853;SDS011;34673;52.808;17.856;2024-01-30T06:14:58;23.95;;;10.93;;
48853;SDS011;34673;52.808;17.856;2024-01-30T06:17:25;22.73;;;11.25;;
48853;SDS011;34673;52.808;17.856;2024-01-30T06:19:53;21.33;;;10.88;;
48853;SDS011;34673;52.808;17.856;2024-01-30T06:22:20;27.33;;;11.60;;
48853;SDS011;34673;52.808;17.856;2024-01-30T06:24:47;24.75;;;11.38;;
48853;SDS011;34673;52.808;17.856;2024-01-30T06:27:15;21.60;;;11.27;;
48853;SDS011;34673;52.808;17.856;2024-01-30T06:29:44;24.13;;;11.73;;
48853;SDS011;34673;52.808;17.856;2024-01-30T06:32:11;24.02;;;10.93;;
48853;SDS011;34673;52.808;17.856;2024-01-30T06:34:38;21.05;;;10.55;;
48853;SDS011;34673;52.808;17.856;2024-01-30T06:37:06;22.60;;;10.85;;
48853;SDS011;34673;52.808;17.856;2024-01-30T06:39:34;23.05;;;11.10;;
48853;SDS011;34673;52.808;17.856;2024-01-30T06:42:01;21.20;;;11.15;;
48853;SDS011;34673;52.808;17.856;2024-01-30T06:44:28;23.08;;;10.65;;
48853;SDS011;34673;52.808;17.856;2024-01-30T06:46:58;24.15;;;12.10;;
48853;SDS011;34673;52.808;17.856;2024-01-30T06:49:26;27.20;;;11.02;;
48853;SDS011;34673;52.808;17.856;2024-01-30T06:51:53;25.13;;;11.25;;
48853;SDS011;34673;52.808;17.856;2024-01-30T06:54:20;21.13;;;10.77;;
48853;SDS011;34673;52.808;17.856;2024-01-30T06:56:47;22.52;;;10.90;;
48853;SDS011;34673;52.808;17.856;2024-01-30T06:59:15;23.65;;;11.32;;
48853;SDS011;34673;52.808;17.856;2024-01-30T07:01:42;22.92;;;10.98;;
48853;SDS011;34673;52.808;17.856;2024-01-30T07:04:09;22.60;;;10.63;;
48853;SDS011;34673;52.808;17.856;2024-01-30T07:06:36;24.27;;;10.88;;
48853;SDS011;34673;52.808;17.856;2024-01-30T07:09:03;24.48;;;11.18;;
48853;SDS011;34673;52.808;17.856;2024-01-30T07:11:31;25.83;;;11.52;;
48853;SDS011;34673;52.808;17.856;2024-01-30T07:13:59;23.25;;;10.70;;
48853;SDS011;34673;52.808;17.856;2024-01-30T07:16:26;23.20;;;11.05;;
48853;SDS011;34673;52.808;17.856;2024-01-30T07:18:53;23.50;;;11.00;;
48853;SDS011;34673;52.808;17.856;2024-01-30T07:21:20;22.77;;;10.73;;
48853;SDS011;34673;52.808;17.856;2024-01-30T07:23:51;20.77;;;11.07;;
48853;SDS011;34673;52.808;17.856;2024-01-30T07:26:18;24.13;;;11.43;;
48853;SDS011;34673;52.808;17.856;2024-01-30T07:28:46;23.25;;;11.02;;
48853;SDS011;34673;52.808;17.856;2024-01-30T07:31:13;27.55;;;11.45;;
48853;SDS011;34673;52.808;17.856;2024-01-30T07:33:40;24.77;;;11.20;;
48853;SDS011;34673;52.808;17.856;2024-01-30T07:36:07;26.25;;;11.57;;
48853;SDS011;34673;52.808;17.856;2024-01-30T07:38:35;21.15;;;10.82;;
48853;SDS011;34673;52.808;17.856;2024-01-30T07:41:02;23.30;;;11.27;;
48853;SDS011;34673;52.808;17.856;2024-01-30T07:43:29;24.40;;;10.25;;
48853;SDS011;34673;52.808;17.856;2024-01-30T07:45:56;21.55;;;9.93;;
48853;SDS011;34673;52.808;17.856;2024-01-30T07:48:24;21.73;;;9.90;;
48853;SDS011;34673;52.808;17.856;2024-01-30T07:50:51;21.63;;;11.15;;
48853;SDS011;34673;52.808;17.856;2024-01-30T07:53:18;20.50;;;10.18;;
48853;SDS011;34673;52.808;17.856;2024-01-30T07:55:46;24.20;;;10.45;;
48853;SDS011;34673;52.808;17.856;2024-01-30T07:58:13;18.42;;;9.75;;
48853;SDS011;34673;52.808;17.856;2024-01-30T08:00:40;21.38;;;9.88;;
48853;SDS011;34673;52.808;17.856;2024-01-30T08:03:08;17.42;;;8.88;;
48853;SDS011;34673;52.808;17.856;2024-01-30T08:05:35;20.35;;;9.82;;
48853;SDS011;34673;52.808;17.856;2024-01-30T08:08:02;18.23;;;9.00;;
48853;SDS011;34673;52.808;17.856;2024-01-30T08:10:30;19.65;;;10.00;;
48853;SDS011;34673;52.808;17.856;2024-01-30T08:12:57;17.95;;;9.25;;
48853;SDS011;34673;52.808;17.856;2024-01-30T08:15:24;27.65;;;10.48;;
48853;SDS011;34673;52.808;17.856;2024-01-30T08:17:52;20.00;;;9.25;;
48853;SDS011;34673;52.808;17.856;2024-01-30T08:20:24;19.02;;;9.75;;
48853;SDS011;34673;52.808;17.856;2024-01-30T08:22:52;20.38;;;9.40;;
48853;SDS011;34673;52.808;17.856;2024-01-30T08:25:19;19.80;;;9.57;;
48853;SDS011;34673;52.808;17.856;2024-01-30T08:27:46;21.60;;;10.07;;
48853;SDS011;34673;52.808;17.856;2024-01-30T08:30:14;19.88;;;9.90;;
48853;SDS011;34673;52.808;17.856;2024-01-30T08:32:41;20.60;;;9.85;;
48853;SDS011;34673;52.808;17.856;2024-01-30T08:35:08;20.15;;;9.93;;
48853;SDS011;34673;52.808;17.856;2024-01-30T08:37:36;20.38;;;9.73;;
48853;SDS011;34673;52.808;17.856;2024-01-30T08:40:05;20.52;;;9.38;;
48853;SDS011;34673;52.808;17.856;2024-01-30T08:42:35;22.02;;;9.48;;
48853;SDS011;34673;52.808;17.856;2024-01-30T08:45:02;18.67;;;10.20;;
48853;SDS011;34673;52.808;17.856;2024-01-30T08:47:31;20.27;;;9.45;;
48853;SDS011;34673;52.808;17.856;2024-01-30T08:50:00;22.67;;;9.50;;
48853;SDS011;34673;52.808;17.856;2024-01-30T08:52:27;21.40;;;9.68;;
48853;SDS011;34673;52.808;17.856;2024-01-30T08:54:54;17.38;;;8.65;;
48853;SDS011;34673;52.808;17.856;2024-01-30T08:57:21;18.52;;;8.70;;
48853;SDS011;34673;52.808;17.856;2024-01-30T08:59:49;18.13;;;8.65;;
48853;SDS011;34673;52.808;17.856;2024-01-30T09:02:16;21.63;;;10.25;;
48853;SDS011;34673;52.808;17.856;2024-01-30T09:04:45;19.70;;;9.50;;
48853;SDS011;34673;52.808;17.856;2024-01-30T09:07:12;16.25;;;8.38;;
48853;SDS011;34673;52.808;17.856;2024-01-30T09:09:40;17.77;;;8.90;;
48853;SDS011;34673;52.808;17.856;2024-01-30T09:12:08;17.70;;;8.70;;
48853;SDS011;34673;52.808;17.856;2024-01-30T09:17:07;16.98;;;8.48;;
48853;SDS011;34673;52.808;17.856;2024-01-30T09:19:35;17.45;;;9.07;;
48853;SDS011;34673;52.808;17.856;2024-01-30T09:22:02;18.30;;;9.00;;
48853;SDS011;34673;52.808;17.856;2024-01-30T09:24:30;17.75;;;9.27;;
48853;SDS011;34673;52.808;17.856;2024-01-30T09:26:57;18.17;;;9.07;;
48853;SDS011;34673;52.808;17.856;2024-01-30T09:29:25;20.48;;;9.68;;
48853;SDS011;34673;52.808;17.856;2024-01-30T09:31:52;17.17;;;9.00;;
48853;SDS011;34673;52.808;17.856;2024-01-30T09:34:19;18.88;;;9.15;;
48853;SDS011;34673;52.808;17.856;2024-01-30T09:36:47;17.55;;;9.35;;
48853;SDS011;34673;52.808;17.856;2024-01-30T09:39:14;20.90;;;9.35;;
48853;SDS011;34673;52.808;17.856;2024-01-30T09:41:49;17.70;;;9.55;;
48853;SDS011;34673;52.808;17.856;2024-01-30T09:44:28;19.33;;;9.18;;
48853;SDS011;34673;52.808;17.856;2024-01-30T09:46:57;19.17;;;9.35;;
48853;SDS011;34673;52.808;17.856;2024-01-30T09:49:33;19.23;;;9.27;;
48853;SDS011;34673;52.808;17.856;2024-01-30T09:52:02;20.92;;;9.13;;
48853;SDS011;34673;52.808;17.856;2024-01-30T09:54:30;18.85;;;9.27;;
48853;SDS011;34673;52.808;17.856;2024-01-30T09:57:02;19.17;;;9.50;;
48853;SDS011;34673;52.808;17.856;2024-01-30T09:59:30;21.85;;;10.30;;
48853;SDS011;34673;52.808;17.856;2024-01-30T10:01:57;16.75;;;9.00;;
48853;SDS011;34673;52.808;17.856;2024-01-30T10:04:24;19.08;;;9.13;;
48853;SDS011;34673;52.808;17.856;2024-01-30T10:06:52;17.70;;;8.88;;
48853;SDS011;34673;52.808;17.856;2024-01-30T10:09:19;19.42;;;8.98;;
48853;SDS011;34673;52.808;17.856;2024-01-30T10:11:48;15.95;;;8.50;;
48853;SDS011;34673;52.808;17.856;2024-01-30T10:14:15;17.52;;;9.50;;
48853;SDS011;34673;52.808;17.856;2024-01-30T10:16:42;17.88;;;9.23;;
48853;SDS011;34673;52.808;17.856;2024-01-30T10:19:12;17.60;;;9.32;;
48853;SDS011;34673;52.808;17.856;2024-01-30T10:21:39;18.42;;;9.32;;
48853;SDS011;34673;52.808;17.856;2024-01-30T10:24:07;19.40;;;9.57;;
48853;SDS011;34673;52.808;17.856;2024-01-30T10:26:34;18.70;;;9.60;;
48853;SDS011;34673;52.808;17.856;2024-01-30T10:29:01;20.98;;;9.82;;
48853;SDS011;34673;52.808;17.856;2024-01-30T10:31:29;24.25;;;10.13;;
48853;SDS011;34673;52.808;17.856;2024-01-30T10:33:56;20.55;;;9.60;;
48853;SDS011;34673;52.808;17.856;2024-01-30T10:36:39;19.00;;;9.15;;
48853;SDS011;34673;52.808;17.856;2024-01-30T10:39:10;19.70;;;10.27;;
48853;SDS011;34673;52.808;17.856;2024-01-30T10:41:41;18.58;;;9.23;;
48853;SDS011;34673;52.808;17.856;2024-01-30T10:44:11;20.60;;;9.70;;
48853;SDS011;34673;52.808;17.856;2024-01-30T10:46:39;16.95;;;8.98;;
48853;SDS011;34673;52.808;17.856;2024-01-30T10:49:09;17.02;;;9.32;;
48853;SDS011;34673;52.808;17.856;2024-01-30T10:51:37;17.83;;;8.70;;
48853;SDS011;34673;52.808;17.856;2024-01-30T10:54:06;19.17;;;9.55;;
48853;SDS011;34673;52.808;17.856;2024-01-30T10:56:34;18.55;;;10.18;;
48853;SDS011;34673;52.808;17.856;2024-01-30T10:59:02;18.45;;;9.77;;
48853;SDS011;34673;52.808;17.856;2024-01-30T11:01:30;21.05;;;10.50;;
48853;SDS011;34673;52.808;17.856;2024-01-30T11:03:58;19.50;;;9.90;;
48853;SDS011;34673;52.808;17.856;2024-01-30T11:06:25;25.92;;;10.23;;
48853;SDS011;34673;52.808;17.856;2024-01-30T11:09:02;23.98;;;10.65;;
48853;SDS011;34673;52.808;17.856;2024-01-30T11:14:29;20.65;;;10.82;;
48853;SDS011;34673;52.808;17.856;2024-01-30T11:16:57;21.00;;;10.75;;
48853;SDS011;34673;52.808;17.856;2024-01-30T11:19:26;20.75;;;10.13;;
48853;SDS011;34673;52.808;17.856;2024-01-30T11:21:54;21.73;;;10.50;;
48853;SDS011;34673;52.808;17.856;2024-01-30T11:24:24;23.20;;;11.20;;
48853;SDS011;34673;52.808;17.856;2024-01-30T11:27:01;22.35;;;11.23;;
48853;SDS011;34673;52.808;17.856;2024-01-30T11:29:34;22.75;;;11.57;;
48853;SDS011;34673;52.808;17.856;2024-01-30T11:32:02;24.73;;;10.88;;
48853;SDS011;34673;52.808;17.856;2024-01-30T11:34:29;23.58;;;11.38;;
48853;SDS011;34673;52.808;17.856;2024-01-30T11:36:58;22.42;;;11.85;;
48853;SDS011;34673;52.808;17.856;2024-01-30T11:39:31;24.92;;;11.70;;
48853;SDS011;34673;52.808;17.856;2024-01-30T11:44:26;24.52;;;11.70;;
48853;SDS011;34673;52.808;17.856;2024-01-30T11:46:53;24.58;;;12.35;;
48853;SDS011;34673;52.808;17.856;2024-01-30T11:49:20;23.77;;;12.27;;
48853;SDS011;34673;52.808;17.856;2024-01-30T11:51:48;22.95;;;11.48;;
48853;SDS011;34673;52.808;17.856;2024-01-30T11:54:16;24.48;;;12.27;;
48853;SDS011;34673;52.808;17.856;2024-01-30T11:56:43;26.13;;;12.07;;
48853;SDS011;34673;52.808;17.856;2024-01-30T11:59:10;25.83;;;13.35;;
48853;SDS011;34673;52.808;17.856;2024-01-30T12:01:38;24.42;;;11.80;;
48853;SDS011;34673;52.808;17.856;2024-01-30T12:04:07;24.58;;;12.63;;
48853;SDS011;34673;52.808;17.856;2024-01-30T12:06:37;25.35;;;12.65;;
48853;SDS011;34673;52.808;17.856;2024-01-30T12:09:06;24.98;;;11.90;;
48853;SDS011;34673;52.808;17.856;2024-01-30T12:11:45;26.75;;;12.30;;
48853;SDS011;34673;52.808;17.856;2024-01-30T12:14:13;23.90;;;11.85;;
48853;SDS011;34673;52.808;17.856;2024-01-30T12:16:41;24.27;;;11.95;;
48853;SDS011;34673;52.808;17.856;2024-01-30T12:19:09;21.13;;;12.02;;
48853;SDS011;34673;52.808;17.856;2024-01-30T12:21:38;25.77;;;11.65;;
48853;SDS011;34673;52.808;17.856;2024-01-30T12:24:05;23.95;;;12.38;;
48853;SDS011;34673;52.808;17.856;2024-01-30T12:26:34;21.70;;;11.40;;
48853;SDS011;34673;52.808;17.856;2024-01-30T12:29:03;23.02;;;12.32;;
48853;SDS011;34673;52.808;17.856;2024-01-30T12:31:31;23.80;;;11.27;;
48853;SDS011;34673;52.808;17.856;2024-01-30T12:34:00;23.88;;;12.50;;
48853;SDS011;34673;52.808;17.856;2024-01-30T12:36:28;23.65;;;11.52;;
48853;SDS011;34673;52.808;17.856;2024-01-30T12:38:57;23.45;;;12.15;;
48853;SDS011;34673;52.808;17.856;2024-01-30T12:41:25;23.92;;;12.30;;
48853;SDS011;34673;52.808;17.856;2024-01-30T12:43:59;23.02;;;12.35;;
48853;SDS011;34673;52.808;17.856;2024-01-30T12:46:29;26.83;;;12.88;;
48853;SDS011;34673;52.808;17.856;2024-01-30T12:48:57;25.83;;;11.93;;
48853;SDS011;34673;52.808;17.856;2024-01-30T12:51:24;21.92;;;11.77;;
48853;SDS011;34673;52.808;17.856;2024-01-30T12:53:51;24.65;;;12.00;;
48853;SDS011;34673;52.808;17.856;2024-01-30T12:56:18;21.20;;;11.45;;
48853;SDS011;34673;52.808;17.856;2024-01-30T12:58:46;21.95;;;11.25;;
48853;SDS011;34673;52.808;17.856;2024-01-30T13:01:17;19.20;;;10.95;;
48853;SDS011;34673;52.808;17.856;2024-01-30T13:03:45;23.38;;;10.88;;
48853;SDS011;34673;52.808;17.856;2024-01-30T13:06:12;22.00;;;10.68;;
48853;SDS011;34673;52.808;17.856;2024-01-30T13:08:40;23.23;;;10.95;;
48853;SDS011;34673;52.808;17.856;2024-01-30T13:11:07;20.45;;;10.40;;
48853;SDS011;34673;52.808;17.856;2024-01-30T13:13:43;20.70;;;10.35;;
48853;SDS011;34673;52.808;17.856;2024-01-30T13:16:10;19.00;;;10.27;;
48853;SDS011;34673;52.808;17.856;2024-01-30T13:18:37;17.40;;;10.18;;
48853;SDS011;34673;52.808;17.856;2024-01-30T13:21:05;22.23;;;10.63;;
48853;SDS011;34673;52.808;17.856;2024-01-30T13:23:32;23.17;;;11.38;;
48853;SDS011;34673;52.808;17.856;2024-01-30T13:25:59;24.40;;;10.88;;
48853;SDS011;34673;52.808;17.856;2024-01-30T13:28:26;24.40;;;10.38;;
48853;SDS011;34673;52.808;17.856;2024-01-30T13:30:54;20.02;;;11.05;;
48853;SDS011;34673;52.808;17.856;2024-01-30T13:33:22;20.05;;;10.20;;
48853;SDS011;34673;52.808;17.856;2024-01-30T13:35:49;19.83;;;9.95;;
48853;SDS011;34673;52.808;17.856;2024-01-30T13:38:16;21.42;;;10.30;;
48853;SDS011;34673;52.808;17.856;2024-01-30T13:40:43;21.00;;;10.88;;
48853;SDS011;34673;52.808;17.856;2024-01-30T13:43:11;24.17;;;11.10;;
48853;SDS011;34673;52.808;17.856;2024-01-30T13:45:39;22.63;;;10.73;;
48853;SDS011;34673;52.808;17.856;2024-01-30T13:48:06;20.42;;;11.23;;
48853;SDS011;34673;52.808;17.856;2024-01-30T13:50:33;28.15;;;11.32;;
48853;SDS011;34673;52.808;17.856;2024-01-30T13:53:02;21.10;;;10.75;;
48853;SDS011;34673;52.808;17.856;2024-01-30T13:55:31;24.23;;;11.35;;
48853;SDS011;34673;52.808;17.856;2024-01-30T13:57:58;26.55;;;10.48;;
48853;SDS011;34673;52.808;17.856;2024-01-30T14:00:26;19.83;;;10.38;;
48853;SDS011;34673;52.808;17.856;2024-01-30T14:02:53;27.75;;;13.25;;
48853;SDS011;34673;52.808;17.856;2024-01-30T14:05:25;27.63;;;13.00;;
48853;SDS011;34673;52.808;17.856;2024-01-30T14:07:54;25.23;;;13.27;;
48853;SDS011;34673;52.808;17.856;2024-01-30T14:10:22;27.38;;;13.18;;
48853;SDS011;34673;52.808;17.856;2024-01-30T14:12:49;25.83;;;13.38;;
48853;SDS011;34673;52.808;17.856;2024-01-30T14:15:17;24.52;;;12.30;;
48853;SDS011;34673;52.808;17.856;2024-01-30T14:17:55;24.90;;;13.02;;
48853;SDS011;34673;52.808;17.856;2024-01-30T14:20:24;25.10;;;12.60;;
48853;SDS011;34673;52.808;17.856;2024-01-30T14:22:51;25.02;;;13.15;;
48853;SDS011;34673;52.808;17.856;2024-01-30T14:25:20;28.23;;;13.70;;